createdAt,value
2017-12-31T00:02:27.340Z,-0.50
2017-12-31T00:04:55.641Z,-0.50
2017-12-31T00:07:23.901Z,-0.50
2017-12-31T00:09:51.821Z,-0.60
2017-12-31T00:12:19.561Z,-0.60
2017-12-31T00:14:47.329Z,-0.60
2017-12-31T00:17:15.202Z,-0.60
2017-12-31T00:19:43.041Z,-0.60
2017-12-31T00:22:12.782Z,-0.60
2017-12-31T00:24:40.846Z,-0.60
2017-12-31T00:27:09.609Z,-0.60
2017-12-31T00:29:37.778Z,-0.60
2017-12-31T00:32:05.798Z,-0.60
2017-12-31T00:34:33.968Z,-0.60
2017-12-31T00:37:02.078Z,-0.60
2017-12-31T00:39:30.284Z,-0.60
2017-12-31T00:41:57.952Z,-0.70
2017-12-31T00:44:25.730Z,-0.80
2017-12-31T00:46:53.703Z,-0.90
2017-12-31T00:49:21.867Z,-0.90
2017-12-31T00:51:50.007Z,-0.90
2017-12-31T00:54:18.128Z,-0.90
2017-12-31T00:56:46.189Z,-0.80
2017-12-31T00:59:14.377Z,-0.80
2017-12-31T01:04:14.530Z,-0.70
2017-12-31T01:06:42.287Z,-0.80
2017-12-31T01:09:10.288Z,-0.70
2017-12-31T01:11:38.398Z,-0.70
2017-12-31T01:14:06.502Z,-0.70
2017-12-31T01:16:34.527Z,-0.80
2017-12-31T01:19:02.550Z,-0.80
2017-12-31T01:21:31.327Z,-1.00
2017-12-31T01:23:59.398Z,-1.00
2017-12-31T01:26:27.507Z,-1.00
2017-12-31T01:28:56.329Z,-0.90
2017-12-31T01:31:24.458Z,-0.90
2017-12-31T01:33:52.467Z,-0.90
2017-12-31T01:36:21.308Z,-0.90
2017-12-31T01:38:49.490Z,-0.90
2017-12-31T01:41:17.528Z,-1.00
2017-12-31T01:43:45.668Z,-1.10
2017-12-31T01:46:13.747Z,-1.10
2017-12-31T01:48:53.424Z,-1.20
2017-12-31T01:51:21.468Z,-1.50
2017-12-31T01:53:49.489Z,-1.50
2017-12-31T01:56:17.536Z,-1.30
2017-12-31T01:58:45.708Z,-1.10
2017-12-31T02:01:13.857Z,-1.00
2017-12-31T02:03:41.888Z,-1.30
2017-12-31T02:06:10.019Z,-1.20
2017-12-31T02:08:38.739Z,-1.20
2017-12-31T02:11:06.938Z,-1.20
2017-12-31T02:13:34.967Z,-1.40
2017-12-31T02:16:03.069Z,-1.30
2017-12-31T02:18:31.088Z,-1.30
2017-12-31T02:20:59.319Z,-1.50
2017-12-31T02:23:27.367Z,-1.80
2017-12-31T02:25:55.388Z,-1.70
2017-12-31T02:28:23.548Z,-1.60
2017-12-31T02:30:51.678Z,-1.40
2017-12-31T02:33:19.799Z,-1.20
2017-12-31T02:35:47.835Z,-1.30
2017-12-31T02:38:16.068Z,-1.40
2017-12-31T02:40:44.169Z,-1.40
2017-12-31T02:43:12.298Z,-1.20
2017-12-31T02:45:40.369Z,-1.00
2017-12-31T02:48:10.268Z,-0.80
2017-12-31T02:50:38.397Z,-0.80
2017-12-31T02:53:06.529Z,-0.40
2017-12-31T02:55:34.638Z,-0.40
2017-12-31T02:58:02.688Z,-0.40
2017-12-31T03:00:34.345Z,-0.60
2017-12-31T03:03:02.530Z,-0.60
2017-12-31T03:05:30.648Z,-0.60
2017-12-31T03:07:58.724Z,-0.50
2017-12-31T03:10:27.558Z,-0.90
2017-12-31T03:12:55.679Z,-0.90
2017-12-31T03:15:23.661Z,-0.60
2017-12-31T03:17:51.859Z,-0.80
2017-12-31T03:20:20.078Z,-0.70
2017-12-31T03:22:48.148Z,-0.50
2017-12-31T03:25:17.008Z,-0.80
2017-12-31T03:27:45.088Z,-0.80
2017-12-31T03:30:13.119Z,-0.80
2017-12-31T03:32:41.108Z,-1.00
2017-12-31T03:35:09.179Z,-1.00
2017-12-31T03:37:37.228Z,-1.10
2017-12-31T03:40:05.369Z,-1.10
2017-12-31T03:42:33.397Z,-1.20
2017-12-31T03:45:01.484Z,-1.10
2017-12-31T03:47:29.629Z,-1.00
2017-12-31T03:49:57.759Z,-1.10
2017-12-31T03:52:25.748Z,-1.30
2017-12-31T03:54:53.839Z,-1.30
2017-12-31T03:57:22.058Z,-1.40
2017-12-31T03:59:50.162Z,-1.50
2017-12-31T04:02:18.209Z,-1.40
2017-12-31T04:04:47.029Z,-1.10
2017-12-31T04:07:15.098Z,-1.20
2017-12-31T04:09:43.128Z,-1.00
2017-12-31T04:12:11.248Z,-1.00
2017-12-31T04:14:39.308Z,-1.00
2017-12-31T04:17:07.368Z,-0.90
2017-12-31T04:19:35.347Z,-0.70
2017-12-31T04:22:04.142Z,-0.50
2017-12-31T04:24:32.138Z,-0.60
2017-12-31T04:26:59.824Z,-0.40
2017-12-31T04:29:27.819Z,-0.30
2017-12-31T04:31:55.828Z,-0.10
2017-12-31T04:34:23.850Z,0.00
2017-12-31T04:36:51.888Z,0.00
2017-12-31T04:39:19.878Z,0.10
2017-12-31T04:41:47.958Z,-0.10
2017-12-31T04:44:15.988Z,-0.30
2017-12-31T04:46:44.159Z,-0.30
2017-12-31T04:49:12.308Z,-0.30
2017-12-31T04:51:40.298Z,-0.20
2017-12-31T04:54:08.317Z,-0.10
2017-12-31T04:56:36.307Z,0.00
2017-12-31T04:59:04.297Z,0.10
2017-12-31T05:01:32.318Z,0.20
2017-12-31T05:04:00.399Z,0.20
2017-12-31T05:06:28.437Z,0.40
2017-12-31T05:08:56.398Z,0.60
2017-12-31T05:11:24.518Z,0.90
2017-12-31T05:13:52.683Z,1.00
2017-12-31T05:16:21.477Z,1.20
2017-12-31T05:18:49.508Z,1.20
2017-12-31T05:21:17.494Z,1.30
2017-12-31T05:23:45.449Z,1.30
2017-12-31T05:26:13.144Z,1.30
2017-12-31T05:28:40.856Z,1.30
2017-12-31T05:31:09.145Z,1.20
2017-12-31T05:33:37.162Z,1.20
2017-12-31T05:36:05.100Z,1.20
2017-12-31T05:38:33.048Z,1.20
2017-12-31T05:41:01.037Z,1.20
2017-12-31T05:43:29.908Z,1.10
2017-12-31T05:45:58.648Z,1.10
2017-12-31T05:48:26.607Z,1.00
2017-12-31T05:50:54.708Z,1.00
2017-12-31T05:53:23.618Z,0.80
2017-12-31T05:55:51.598Z,0.80
2017-12-31T05:58:19.647Z,0.70
2017-12-31T06:00:47.767Z,0.60
2017-12-31T06:03:15.689Z,0.60
2017-12-31T06:05:43.778Z,0.60
2017-12-31T06:08:11.898Z,0.60
2017-12-31T06:10:39.968Z,0.70
2017-12-31T06:13:07.938Z,0.70
2017-12-31T06:15:36.768Z,0.80
2017-12-31T06:18:04.888Z,0.80
2017-12-31T06:20:32.930Z,0.90
2017-12-31T06:23:00.988Z,0.90
2017-12-31T06:25:28.788Z,1.00
2017-12-31T06:27:56.778Z,0.90
2017-12-31T06:30:24.748Z,0.90
2017-12-31T06:32:52.439Z,0.70
2017-12-31T06:35:20.787Z,0.60
2017-12-31T06:37:48.503Z,0.50
2017-12-31T06:40:16.618Z,0.40
2017-12-31T06:42:44.708Z,0.40
2017-12-31T06:45:12.492Z,0.40
2017-12-31T06:47:40.285Z,0.40
2017-12-31T06:50:08.023Z,0.50
2017-12-31T06:52:36.051Z,0.50
2017-12-31T06:55:03.887Z,0.60
2017-12-31T06:57:31.948Z,0.70
2017-12-31T07:02:32.853Z,0.80
2017-12-31T07:05:00.998Z,0.80
2017-12-31T07:07:29.029Z,0.90
2017-12-31T07:09:56.968Z,1.00
2017-12-31T07:12:24.977Z,1.10
2017-12-31T07:14:52.928Z,1.20
2017-12-31T07:17:21.228Z,1.30
2017-12-31T07:19:49.552Z,1.30
2017-12-31T07:22:17.638Z,1.40
2017-12-31T07:24:45.659Z,1.50
2017-12-31T07:27:13.597Z,1.50
2017-12-31T07:29:41.336Z,1.50
2017-12-31T07:32:09.378Z,1.60
2017-12-31T07:34:37.317Z,1.60
2017-12-31T07:37:05.428Z,1.50
2017-12-31T07:39:33.488Z,1.50
2017-12-31T07:42:01.212Z,1.50
2017-12-31T07:44:28.921Z,1.30
2017-12-31T07:46:56.868Z,1.30
2017-12-31T07:49:24.967Z,1.30
2017-12-31T07:51:53.029Z,1.30
2017-12-31T07:54:21.147Z,1.20
2017-12-31T07:56:49.197Z,0.90
2017-12-31T07:59:17.438Z,0.70
2017-12-31T08:01:45.509Z,0.70
2017-12-31T08:04:13.668Z,0.70
2017-12-31T08:06:41.858Z,0.60
2017-12-31T08:09:09.928Z,0.40
2017-12-31T08:11:38.018Z,0.40
2017-12-31T08:14:06.088Z,0.40
2017-12-31T08:16:34.143Z,0.40
2017-12-31T08:19:02.378Z,0.20
2017-12-31T08:21:31.448Z,0.30
2017-12-31T08:23:59.518Z,0.40
2017-12-31T08:26:27.508Z,0.60
2017-12-31T08:28:55.568Z,0.90
2017-12-31T08:31:23.658Z,1.10
2017-12-31T08:33:51.766Z,1.50
2017-12-31T08:36:19.798Z,1.80
2017-12-31T08:38:47.868Z,1.90
2017-12-31T08:41:16.008Z,2.00
2017-12-31T08:43:44.088Z,2.20
2017-12-31T08:46:12.338Z,2.50
2017-12-31T08:48:44.463Z,2.90
2017-12-31T08:51:12.908Z,3.40
2017-12-31T08:53:41.728Z,3.70
2017-12-31T08:56:09.949Z,3.70
2017-12-31T08:58:37.943Z,3.80
2017-12-31T09:01:07.156Z,3.90
2017-12-31T09:03:38.793Z,4.10
2017-12-31T09:06:08.374Z,4.40
2017-12-31T09:08:39.034Z,4.80
2017-12-31T09:11:08.263Z,5.50
2017-12-31T09:13:37.845Z,6.20
2017-12-31T09:16:07.306Z,6.90
2017-12-31T09:18:36.896Z,7.50
2017-12-31T09:21:06.320Z,8.10
2017-12-31T09:23:35.836Z,8.30
2017-12-31T09:26:05.886Z,8.70
2017-12-31T09:28:35.509Z,9.00
2017-12-31T09:31:05.163Z,9.30
2017-12-31T09:33:36.550Z,9.50
2017-12-31T09:36:05.944Z,9.60
2017-12-31T09:38:36.526Z,9.50
2017-12-31T09:41:07.338Z,9.50
2017-12-31T09:43:35.372Z,8.70
2017-12-31T09:46:03.538Z,8.20
2017-12-31T09:48:32.307Z,7.80
2017-12-31T09:51:00.403Z,7.40
2017-12-31T09:53:29.454Z,7.10
2017-12-31T09:55:58.554Z,6.80
2017-12-31T09:58:26.678Z,6.80
2017-12-31T10:00:55.075Z,6.60
2017-12-31T10:03:22.860Z,6.60
2017-12-31T10:05:50.598Z,6.60
2017-12-31T10:08:18.356Z,6.40
2017-12-31T10:10:46.173Z,6.20
2017-12-31T10:13:13.884Z,6.10
2017-12-31T10:15:41.958Z,6.10
2017-12-31T10:18:10.009Z,6.30
2017-12-31T12:05:53.945Z,9.70
2017-12-31T12:08:22.098Z,9.70
2017-12-31T12:10:50.228Z,9.60
2017-12-31T12:13:18.518Z,9.60
2017-12-31T12:15:46.578Z,9.50
2017-12-31T12:18:14.618Z,9.50
2017-12-31T12:20:42.648Z,9.50
2017-12-31T12:23:10.863Z,9.50
2017-12-31T12:25:38.627Z,9.60
2017-12-31T12:28:06.640Z,9.60
2017-12-31T12:30:35.020Z,9.60
2017-12-31T12:33:02.822Z,9.60
2017-12-31T12:35:31.082Z,9.60
2017-12-31T12:38:04.261Z,9.70
2017-12-31T12:40:32.804Z,9.70
2017-12-31T12:43:01.119Z,9.60
2017-12-31T12:45:29.100Z,9.60
2017-12-31T12:47:56.862Z,9.60
2017-12-31T12:50:25.543Z,9.40
2017-12-31T12:52:53.843Z,9.40
2017-12-31T12:55:21.840Z,9.50
2017-12-31T12:57:49.827Z,9.50
2017-12-31T13:00:17.609Z,9.50
2017-12-31T13:02:45.403Z,9.60
2017-12-31T13:05:13.222Z,9.50
2017-12-31T13:07:41.241Z,9.60
2017-12-31T13:10:09.902Z,9.80
2017-12-31T13:12:37.662Z,9.70
2017-12-31T13:15:05.400Z,9.80
2017-12-31T13:17:33.223Z,9.80
2017-12-31T13:20:01.039Z,9.80
2017-12-31T13:22:31.543Z,9.70
2017-12-31T13:24:59.363Z,9.60
2017-12-31T13:27:27.221Z,9.50
2017-12-31T13:29:55.306Z,9.50
2017-12-31T13:32:23.238Z,9.20
2017-12-31T13:34:50.985Z,9.00
2017-12-31T13:37:18.798Z,8.90
2017-12-31T13:39:46.534Z,9.00
2017-12-31T13:42:14.309Z,9.00
2017-12-31T13:44:42.161Z,9.00
2017-12-31T13:47:09.919Z,9.00
2017-12-31T13:49:38.147Z,8.80
2017-12-31T13:52:06.101Z,8.70
2017-12-31T13:54:34.239Z,8.60
2017-12-31T13:57:01.997Z,8.50
2017-12-31T13:59:29.920Z,8.50
2017-12-31T14:01:57.740Z,8.50
2017-12-31T14:04:25.461Z,8.50
2017-12-31T14:06:53.462Z,8.60
2017-12-31T14:09:21.263Z,8.60
2017-12-31T14:11:49.083Z,8.60
2017-12-31T14:14:16.882Z,8.60
2017-12-31T14:16:45.402Z,8.50
2017-12-31T14:19:13.160Z,8.50
2017-12-31T14:21:40.960Z,8.50
2017-12-31T14:24:08.741Z,8.40
2017-12-31T14:26:36.758Z,8.40
2017-12-31T14:29:05.420Z,8.30
2017-12-31T14:31:33.186Z,8.30
2017-12-31T14:34:01.024Z,8.20
2017-12-31T14:36:28.783Z,8.20
2017-12-31T14:38:56.482Z,8.10
2017-12-31T14:41:24.962Z,8.10
2017-12-31T14:43:53.000Z,8.00
2017-12-31T14:46:20.879Z,8.00
2017-12-31T14:48:48.659Z,8.00
2017-12-31T14:51:16.800Z,7.90
2017-12-31T14:53:44.621Z,7.90
2017-12-31T14:56:12.480Z,7.90
2017-12-31T14:58:40.281Z,7.80
2017-12-31T15:01:08.171Z,7.80
2017-12-31T15:03:35.962Z,7.70
2017-12-31T15:06:03.944Z,7.70
2017-12-31T15:08:31.642Z,7.70
2017-12-31T15:10:59.331Z,7.70
2017-12-31T15:13:27.062Z,7.70
2017-12-31T15:15:54.756Z,7.70
2017-12-31T15:18:22.595Z,7.70
2017-12-31T15:20:50.343Z,7.70
2017-12-31T15:23:18.024Z,7.60
2017-12-31T15:25:45.884Z,7.60
2017-12-31T15:28:13.623Z,7.60
2017-12-31T15:30:41.312Z,7.40
2017-12-31T15:33:09.002Z,7.40
2017-12-31T15:35:36.763Z,7.40
2017-12-31T15:38:04.662Z,7.30
2017-12-31T15:40:32.622Z,7.20
2017-12-31T15:43:00.742Z,7.20
2017-12-31T15:45:28.422Z,7.20
2017-12-31T15:47:56.235Z,7.10
2017-12-31T15:50:24.123Z,7.10
2017-12-31T15:52:52.028Z,7.10
2017-12-31T15:55:19.766Z,7.10
2017-12-31T15:57:47.546Z,7.00
2017-12-31T16:00:18.640Z,7.10
2017-12-31T16:02:46.523Z,7.00
2017-12-31T16:05:14.443Z,7.10
2017-12-31T16:07:42.363Z,7.10
2017-12-31T16:10:10.525Z,7.00
2017-12-31T16:12:38.343Z,7.00
2017-12-31T16:15:06.202Z,7.10
2017-12-31T16:17:34.807Z,7.10
2017-12-31T16:20:02.621Z,7.00
2017-12-31T16:22:31.409Z,7.00
2017-12-31T16:24:59.251Z,7.00
2017-12-31T16:27:27.103Z,7.00
2017-12-31T16:29:54.944Z,7.00
2017-12-31T16:32:22.821Z,7.00
2017-12-31T16:34:50.682Z,6.90
2017-12-31T16:37:18.581Z,6.90
2017-12-31T16:39:46.721Z,6.90
2017-12-31T16:42:14.631Z,6.90
2017-12-31T16:44:43.079Z,7.00
2017-12-31T16:47:10.999Z,7.00
2017-12-31T16:49:38.859Z,7.00
2017-12-31T16:52:07.476Z,7.00
2017-12-31T16:54:35.221Z,7.00
2017-12-31T16:57:03.487Z,7.00
2017-12-31T16:59:32.203Z,7.00
2017-12-31T17:02:00.183Z,7.00
2017-12-31T17:04:28.223Z,7.00
2017-12-31T17:06:56.349Z,6.90
2017-12-31T17:09:24.189Z,6.90
2017-12-31T17:11:52.034Z,7.00
2017-12-31T17:14:19.785Z,7.00
2017-12-31T17:16:47.481Z,7.00
2017-12-31T17:19:15.261Z,6.90
2017-12-31T17:21:42.963Z,6.90
2017-12-31T17:24:11.399Z,6.90
2017-12-31T17:26:39.186Z,6.90
2017-12-31T17:29:06.978Z,6.80
2017-12-31T17:31:34.762Z,6.80
2017-12-31T17:34:02.540Z,6.70
2017-12-31T17:36:30.279Z,6.70
2017-12-31T17:38:58.078Z,6.70
2017-12-31T17:41:25.843Z,6.60
2017-12-31T17:43:53.823Z,6.60
2017-12-31T17:46:21.679Z,6.60
2017-12-31T17:48:49.671Z,6.60
2017-12-31T17:51:17.464Z,6.60
2017-12-31T17:53:45.288Z,6.50
2017-12-31T17:56:13.121Z,6.50
2017-12-31T17:58:40.883Z,6.50
2017-12-31T18:01:09.402Z,6.60
2017-12-31T18:03:37.291Z,6.60
2017-12-31T18:06:05.126Z,6.60
2017-12-31T18:08:33.063Z,6.60
2017-12-31T18:11:01.701Z,6.50
2017-12-31T18:13:29.514Z,6.50
2017-12-31T18:15:57.283Z,6.40
2017-12-31T18:18:25.139Z,6.40
2017-12-31T18:20:53.081Z,6.40
2017-12-31T18:23:21.029Z,6.40
2017-12-31T18:25:49.643Z,6.40
2017-12-31T18:28:18.164Z,6.40
2017-12-31T18:30:46.170Z,6.40
2017-12-31T18:33:14.206Z,6.50
2017-12-31T18:35:42.421Z,6.40
2017-12-31T18:38:10.301Z,6.30
2017-12-31T18:43:45.541Z,5.90
2017-12-31T18:46:13.686Z,5.90
2017-12-31T18:48:41.466Z,5.80
2017-12-31T18:51:10.013Z,5.70
2017-12-31T18:56:37.006Z,5.70
2017-12-31T18:59:18.345Z,5.70
2017-12-31T19:01:47.728Z,5.70
2017-12-31T19:04:28.130Z,5.70
2017-12-31T19:07:21.660Z,5.70
2017-12-31T19:09:50.284Z,5.70
2017-12-31T19:12:18.138Z,5.70
2017-12-31T19:20:44.297Z,5.60
2017-12-31T19:23:12.478Z,5.50
2017-12-31T19:25:40.878Z,5.50
2017-12-31T19:28:09.298Z,5.40
2017-12-31T19:30:37.121Z,5.40
2017-12-31T19:35:37.781Z,5.30
2017-12-31T19:38:06.039Z,5.30
2017-12-31T19:40:33.861Z,5.20
2017-12-31T19:43:01.802Z,5.20
2017-12-31T19:45:29.640Z,5.10
2017-12-31T19:47:57.851Z,5.10
2017-12-31T19:50:25.682Z,5.10
2017-12-31T19:52:53.502Z,5.00
2017-12-31T19:55:21.241Z,5.00
2017-12-31T19:57:49.300Z,4.90
2017-12-31T20:00:18.673Z,4.90
2017-12-31T20:02:46.781Z,4.90
2017-12-31T20:05:14.639Z,4.80
2017-12-31T20:07:42.414Z,4.80
2017-12-31T20:10:10.241Z,4.80
2017-12-31T20:12:38.041Z,4.80
2017-12-31T20:15:05.828Z,4.90
2017-12-31T20:17:33.601Z,4.90
2017-12-31T20:20:01.659Z,4.80
2017-12-31T20:22:30.160Z,4.80
2017-12-31T20:24:57.982Z,4.80
2017-12-31T20:27:25.847Z,4.70
2017-12-31T20:29:53.637Z,4.60
2017-12-31T20:32:21.384Z,4.40
2017-12-31T20:34:49.215Z,4.40
2017-12-31T20:37:16.981Z,4.30
2017-12-31T20:39:44.827Z,4.30
2017-12-31T20:42:12.720Z,4.30
2017-12-31T20:44:40.611Z,4.20
2017-12-31T20:47:08.368Z,4.30
2017-12-31T20:49:37.000Z,4.30
2017-12-31T20:52:04.789Z,4.30
2017-12-31T20:54:33.398Z,4.40
2017-12-31T20:57:01.318Z,4.30
2017-12-31T20:59:29.106Z,4.30
2017-12-31T21:01:56.852Z,4.30
2017-12-31T21:04:24.659Z,4.30
2017-12-31T21:06:52.453Z,4.30
2017-12-31T21:09:20.210Z,4.30
2017-12-31T21:11:48.059Z,4.30
2017-12-31T21:14:15.981Z,4.30
2017-12-31T21:16:43.860Z,4.30
2017-12-31T21:19:11.788Z,4.30
2017-12-31T21:21:39.600Z,4.20
2017-12-31T21:24:07.468Z,4.30
2017-12-31T21:26:35.278Z,4.30
2017-12-31T21:29:03.158Z,4.20
2017-12-31T21:31:30.977Z,4.20
2017-12-31T21:33:59.141Z,4.10
2017-12-31T21:36:26.999Z,4.00
2017-12-31T21:38:54.982Z,3.90
2017-12-31T21:41:22.939Z,3.90
2017-12-31T21:43:52.020Z,3.90
2017-12-31T21:46:20.220Z,3.90
2017-12-31T21:48:48.385Z,3.80
2017-12-31T21:51:17.064Z,3.50
2017-12-31T21:53:44.841Z,3.40
2017-12-31T21:56:12.723Z,3.30
2017-12-31T21:58:40.574Z,3.20
2017-12-31T22:01:09.160Z,3.20
2017-12-31T22:03:37.039Z,3.20
2017-12-31T22:06:04.903Z,3.20
2017-12-31T22:08:32.720Z,3.20
2017-12-31T22:11:00.583Z,3.00
2017-12-31T22:13:28.371Z,2.90
2017-12-31T22:15:56.122Z,2.80
2017-12-31T22:18:23.963Z,2.90
2017-12-31T22:20:52.543Z,3.00
2017-12-31T22:23:21.007Z,3.10
2017-12-31T22:25:49.324Z,3.10
2017-12-31T22:28:17.170Z,3.10
2017-12-31T22:30:45.063Z,2.90
2017-12-31T22:33:12.880Z,2.50
2017-12-31T22:35:40.703Z,2.30
2017-12-31T22:38:08.539Z,2.20
2017-12-31T22:40:36.401Z,1.90
2017-12-31T22:43:04.329Z,1.60
2017-12-31T22:45:32.143Z,1.60
2017-12-31T22:48:00.783Z,1.70
2017-12-31T22:50:28.778Z,1.70
2017-12-31T22:52:56.644Z,1.70
2017-12-31T22:55:24.423Z,1.60
2017-12-31T22:57:52.222Z,1.50
2017-12-31T23:00:21.676Z,1.40
2017-12-31T23:02:49.631Z,1.30
2017-12-31T23:05:17.340Z,1.40
2017-12-31T23:07:45.183Z,1.40
2017-12-31T23:10:13.126Z,1.40
2017-12-31T23:12:41.035Z,1.30
2017-12-31T23:15:08.846Z,1.10
2017-12-31T23:17:36.702Z,1.00
2017-12-31T23:20:04.762Z,0.90
2017-12-31T23:22:32.540Z,0.80
2017-12-31T23:25:00.421Z,0.90
2017-12-31T23:27:28.245Z,1.00
2017-12-31T23:29:56.360Z,0.90
2017-12-31T23:32:24.138Z,1.00
2017-12-31T23:34:51.992Z,1.20
2017-12-31T23:37:19.824Z,1.10
2017-12-31T23:39:47.864Z,1.00
2017-12-31T23:42:15.680Z,1.00
2017-12-31T23:44:43.503Z,0.90
2017-12-31T23:47:11.410Z,0.70
2017-12-31T23:49:39.463Z,0.60
2017-12-31T23:52:07.301Z,0.60
2017-12-31T23:54:35.307Z,0.70
2017-12-31T23:57:04.685Z,0.70
2017-12-31T23:59:32.885Z,0.80
